createdAt,value
2022-08-24T00:00:26.136Z,2.90
2022-08-24T00:02:52.853Z,3.97
2022-08-24T00:05:21.454Z,3.30
2022-08-24T00:07:50.079Z,3.00
2022-08-24T00:10:18.379Z,3.20
2022-08-24T00:12:48.272Z,3.60
2022-08-24T00:15:16.383Z,3.40
2022-08-24T00:17:43.089Z,3.65
2022-08-24T00:20:11.456Z,3.67
2022-08-24T00:22:39.043Z,4.03
2022-08-24T00:25:06.445Z,3.25
2022-08-24T00:27:33.214Z,3.30
2022-08-24T00:30:00.028Z,3.30
2022-08-24T00:32:26.687Z,3.03
2022-08-24T00:34:58.245Z,3.30
2022-08-24T00:37:28.763Z,4.15
2022-08-24T00:39:57.179Z,3.40
2022-08-24T00:42:24.517Z,3.55
2022-08-24T00:44:52.162Z,3.42
2022-08-24T00:47:24.101Z,3.30
2022-08-24T00:49:55.967Z,3.80
2022-08-24T00:52:38.728Z,3.40
2022-08-24T00:55:10.143Z,3.40
2022-08-24T00:57:43.322Z,3.92
2022-08-24T01:00:24.696Z,3.42
2022-08-24T01:02:55.922Z,3.47
2022-08-24T01:05:22.807Z,3.20
2022-08-24T01:07:50.776Z,3.13
2022-08-24T01:10:21.221Z,3.17
2022-08-24T01:13:01.064Z,3.30
2022-08-24T01:15:29.560Z,3.67
2022-08-24T01:18:15.582Z,3.15
2022-08-24T01:20:46.139Z,3.42
2022-08-24T01:23:28.121Z,3.20
2022-08-24T01:26:03.118Z,3.50
2022-08-24T01:28:30.397Z,3.20
2022-08-24T01:30:58.792Z,3.60
2022-08-24T01:33:32.953Z,3.60
2022-08-24T01:36:11.623Z,3.67
2022-08-24T01:38:38.231Z,3.47
2022-08-24T01:41:04.975Z,4.00
2022-08-24T01:43:31.659Z,3.80
2022-08-24T01:46:03.799Z,3.42
2022-08-24T01:48:31.044Z,3.38
2022-08-24T01:50:57.794Z,3.65
2022-08-24T01:53:25.012Z,3.30
2022-08-24T01:55:51.925Z,3.60
2022-08-24T01:58:18.660Z,3.63
2022-08-24T02:00:45.477Z,3.50
2022-08-24T02:03:12.200Z,3.70
2022-08-24T02:05:38.999Z,4.05
2022-08-24T02:08:06.389Z,3.58
2022-08-24T02:10:33.110Z,3.33
2022-08-24T02:12:59.966Z,3.20
2022-08-24T02:15:32.158Z,3.50
2022-08-24T02:18:00.082Z,3.25
2022-08-24T02:20:27.203Z,3.03
2022-08-24T02:22:54.501Z,2.75
2022-08-24T02:25:24.454Z,3.63
2022-08-24T02:27:51.140Z,3.03
2022-08-24T02:30:18.153Z,3.58
2022-08-24T02:32:44.828Z,3.47
2022-08-24T02:35:11.856Z,3.35
2022-08-24T02:37:43.798Z,3.40
2022-08-24T02:40:12.705Z,3.40
2022-08-24T02:42:39.624Z,3.88
2022-08-24T02:45:06.892Z,3.50
2022-08-24T02:47:38.693Z,3.30
2022-08-24T02:50:08.588Z,4.22
2022-08-24T02:52:37.647Z,4.03
2022-08-24T02:55:06.261Z,3.40
2022-08-24T02:57:32.882Z,3.42
2022-08-24T02:59:59.812Z,3.78
2022-08-24T03:02:27.147Z,3.53
2022-08-24T03:04:56.679Z,3.38
2022-08-24T03:07:25.485Z,3.38
2022-08-24T03:09:52.077Z,3.33
2022-08-24T03:12:18.657Z,3.45
2022-08-24T03:14:45.444Z,3.35
2022-08-24T03:17:12.153Z,3.30
2022-08-24T03:19:38.838Z,3.50
2022-08-24T03:22:05.681Z,4.03
2022-08-24T03:24:32.491Z,3.90
2022-08-24T03:26:59.556Z,3.47
2022-08-24T03:29:26.400Z,4.28
2022-08-24T03:31:52.988Z,3.30
2022-08-24T03:34:21.057Z,3.10
2022-08-24T03:36:47.625Z,3.10
2022-08-24T03:39:15.621Z,3.65
2022-08-24T03:41:42.850Z,3.78
2022-08-24T03:44:09.702Z,4.07
2022-08-24T03:46:37.721Z,3.60
2022-08-24T03:49:08.806Z,3.60
2022-08-24T03:51:37.606Z,4.03
2022-08-24T03:54:06.060Z,3.55
2022-08-24T03:56:32.834Z,3.80
2022-08-24T03:58:59.591Z,3.28
2022-08-24T04:01:26.962Z,3.92
2022-08-24T04:03:54.210Z,3.75
2022-08-24T04:06:21.979Z,3.60
2022-08-24T04:08:48.935Z,3.88
2022-08-24T04:11:23.001Z,3.70
2022-08-24T04:13:53.338Z,3.40
2022-08-24T04:16:21.427Z,3.40
2022-08-24T04:18:49.167Z,3.70
2022-08-24T04:21:16.859Z,3.80
2022-08-24T04:23:46.885Z,3.70
2022-08-24T04:26:16.067Z,4.00
2022-08-24T04:28:42.833Z,3.92
2022-08-24T04:31:09.545Z,4.20
2022-08-24T04:33:36.409Z,4.28
2022-08-24T04:36:08.029Z,4.38
2022-08-24T04:38:35.483Z,4.15
2022-08-24T04:41:05.793Z,4.03
2022-08-24T04:43:34.811Z,4.40
2022-08-24T04:46:05.379Z,4.72
2022-08-24T04:48:32.793Z,4.45
2022-08-24T04:51:05.827Z,4.60
2022-08-24T04:53:33.722Z,4.10
2022-08-24T04:56:05.632Z,4.90
2022-08-24T04:58:32.738Z,5.13
2022-08-24T05:01:02.733Z,4.40
2022-08-24T05:03:30.001Z,4.10
2022-08-24T05:05:56.798Z,4.55
2022-08-24T05:08:29.720Z,4.57
2022-08-24T05:10:56.659Z,4.28
2022-08-24T05:13:23.836Z,4.60
2022-08-24T05:15:50.856Z,4.60
2022-08-24T05:18:35.501Z,4.00
2022-08-24T05:21:02.643Z,4.40
2022-08-24T05:23:31.204Z,4.50
2022-08-24T05:26:14.169Z,4.70
2022-08-24T05:28:41.317Z,4.47
2022-08-24T05:31:13.866Z,3.90
2022-08-24T05:33:41.516Z,3.83
2022-08-24T05:36:20.713Z,4.30
2022-08-24T05:38:49.213Z,4.25
2022-08-24T05:41:17.049Z,3.92
2022-08-24T05:43:44.394Z,4.13
2022-08-24T05:46:11.180Z,4.15
2022-08-24T05:48:38.235Z,3.90
2022-08-24T05:51:06.358Z,4.32
2022-08-24T05:53:33.571Z,4.25
2022-08-24T05:56:05.994Z,5.25
2022-08-24T05:58:32.620Z,6.38
2022-08-24T06:01:05.711Z,6.55
2022-08-24T06:03:32.236Z,9.07
2022-08-24T06:06:01.193Z,10.18
2022-08-24T06:08:27.835Z,10.18
2022-08-24T06:10:54.365Z,7.32
2022-08-24T06:13:21.355Z,6.43
2022-08-24T06:16:11.032Z,6.63
2022-08-24T06:18:35.563Z,5.25
2022-08-24T06:21:09.079Z,6.47
2022-08-24T06:23:36.445Z,6.43
2022-08-24T06:26:23.477Z,7.57
2022-08-24T06:28:50.208Z,6.55
2022-08-24T06:31:16.962Z,5.55
2022-08-24T06:33:43.643Z,5.03
2022-08-24T06:36:10.499Z,5.45
2022-08-24T06:38:37.663Z,5.13
2022-08-24T06:41:04.877Z,5.30
2022-08-24T06:43:33.941Z,5.20
2022-08-24T06:46:04.411Z,4.85
2022-08-24T06:48:32.444Z,4.85
2022-08-24T06:51:00.297Z,5.07
2022-08-24T06:53:27.678Z,4.75
2022-08-24T06:56:00.951Z,5.28
2022-08-24T06:58:32.469Z,4.70
2022-08-24T07:01:10.039Z,4.70
2022-08-24T07:03:36.663Z,5.00
2022-08-24T07:06:04.716Z,6.80
2022-08-24T07:08:31.541Z,6.43
2022-08-24T07:10:58.579Z,5.88
2022-08-24T07:13:25.577Z,6.13
2022-08-24T07:15:53.133Z,6.20
2022-08-24T07:18:20.969Z,6.45
2022-08-24T07:20:53.187Z,6.45
2022-08-24T07:23:27.335Z,6.97
2022-08-24T07:26:22.867Z,4.90
2022-08-24T07:28:56.188Z,5.30
2022-08-24T07:31:22.846Z,4.72
2022-08-24T07:33:49.602Z,4.63
2022-08-24T07:36:22.625Z,4.43
2022-08-24T07:38:54.039Z,4.50
2022-08-24T07:41:56.219Z,4.43
2022-08-24T07:44:16.799Z,4.95
2022-08-24T07:46:44.052Z,4.47
2022-08-24T07:49:29.442Z,4.28
2022-08-24T07:51:59.466Z,5.18
2022-08-24T07:54:31.592Z,4.68
2022-08-24T07:57:06.462Z,5.18
2022-08-24T07:59:34.659Z,4.90
2022-08-24T08:02:01.533Z,4.95
2022-08-24T08:04:28.158Z,5.90
2022-08-24T08:09:21.535Z,4.43
2022-08-24T08:11:48.981Z,5.30
2022-08-24T08:14:15.622Z,5.28
2022-08-24T08:16:42.429Z,4.60
2022-08-24T08:19:10.506Z,5.28
2022-08-24T08:22:10.021Z,4.97
2022-08-24T08:24:43.790Z,4.80
2022-08-24T08:27:11.867Z,4.85
2022-08-24T08:29:40.578Z,4.82
2022-08-24T08:32:17.002Z,4.60
2022-08-24T08:34:44.395Z,4.15
2022-08-24T08:37:11.583Z,4.57
2022-08-24T08:39:41.756Z,4.40
2022-08-24T08:42:32.473Z,4.53
2022-08-24T08:45:26.616Z,4.65
2022-08-24T08:50:35.529Z,4.32
2022-08-24T08:53:27.698Z,4.32
2022-08-24T08:56:23.747Z,4.70
2022-08-24T08:59:25.080Z,4.47
2022-08-24T09:02:14.488Z,4.30
2022-08-24T09:04:43.621Z,4.82
2022-08-24T09:07:49.401Z,4.18
2022-08-24T09:10:27.612Z,5.03
2022-08-24T09:13:11.909Z,4.60
2022-08-24T09:16:10.706Z,5.07
2022-08-24T09:18:44.329Z,4.05
2022-08-24T09:21:20.037Z,4.10
2022-08-24T09:24:04.425Z,3.97
2022-08-24T09:27:07.699Z,4.00
2022-08-24T09:29:34.730Z,4.15
2022-08-24T09:35:53.919Z,4.30
2022-08-24T09:38:44.830Z,4.18
2022-08-24T09:41:26.576Z,4.32
2022-08-24T09:44:25.587Z,4.15
2022-08-24T09:47:04.118Z,4.10
2022-08-24T09:50:01.051Z,4.10
2022-08-24T09:52:45.949Z,3.13
2022-08-24T09:55:46.577Z,4.07
2022-08-24T09:58:20.963Z,4.43
2022-08-24T10:01:02.235Z,4.05
2022-08-24T10:03:41.348Z,3.80
2022-08-24T10:06:45.250Z,4.13
2022-08-24T10:09:41.791Z,4.10
2022-08-24T10:12:47.247Z,4.38
2022-08-24T10:15:22.616Z,4.10
2022-08-24T10:17:58.301Z,3.47
2022-08-24T10:20:39.365Z,3.45
2022-08-24T10:23:20.934Z,3.28
2022-08-24T10:26:04.134Z,3.13
2022-08-24T10:28:52.320Z,3.97
2022-08-24T10:31:27.029Z,3.65
2022-08-24T10:34:03.850Z,6.25
2022-08-24T10:36:33.551Z,3.47
2022-08-24T10:39:45.493Z,3.50
2022-08-24T10:42:49.579Z,4.00
2022-08-24T10:45:35.207Z,3.17
2022-08-24T10:48:26.704Z,3.40
2022-08-24T10:51:15.996Z,3.67
2022-08-24T10:53:49.620Z,3.42
2022-08-24T10:56:36.139Z,3.30
2022-08-24T10:59:16.608Z,3.50
2022-08-24T11:02:19.436Z,3.65
2022-08-24T11:04:56.016Z,3.35
2022-08-24T11:07:22.655Z,3.63
2022-08-24T11:09:53.367Z,3.30
2022-08-24T11:12:23.816Z,3.40
2022-08-24T11:14:50.649Z,3.35
2022-08-24T11:17:21.379Z,6.70
2022-08-24T11:19:49.879Z,3.20
2022-08-24T11:22:28.974Z,3.10
2022-08-24T11:25:00.130Z,3.50
2022-08-24T11:27:52.077Z,3.40
2022-08-24T11:30:18.590Z,2.83
2022-08-24T11:32:58.679Z,3.42
2022-08-24T11:35:33.475Z,3.22
2022-08-24T11:38:16.157Z,3.47
2022-08-24T11:40:57.617Z,4.70
2022-08-24T11:43:46.032Z,5.50
2022-08-24T11:46:53.606Z,5.85
2022-08-24T11:49:42.637Z,2.80
2022-08-24T11:52:20.124Z,2.90
2022-08-24T11:54:53.664Z,3.13
2022-08-24T11:57:22.906Z,3.53
2022-08-24T12:00:02.336Z,4.47
2022-08-24T12:02:59.293Z,3.42
2022-08-24T12:06:10.434Z,3.78
2022-08-24T12:08:51.030Z,2.65
2022-08-24T12:11:42.337Z,2.90
2022-08-24T12:14:33.436Z,2.85
2022-08-24T12:17:03.088Z,3.58
2022-08-24T12:19:40.624Z,3.38
2022-08-24T12:22:10.071Z,3.95
2022-08-24T12:25:00.929Z,4.05
2022-08-24T12:27:34.452Z,3.15
2022-08-24T12:30:08.042Z,2.90
2022-08-24T12:33:00.756Z,3.00
2022-08-24T12:35:36.804Z,3.25
2022-08-24T12:38:33.727Z,2.80
2022-08-24T12:41:17.854Z,3.00
2022-08-24T12:43:58.943Z,3.35
2022-08-24T12:46:28.849Z,3.00
2022-08-24T12:49:18.189Z,2.90
2022-08-24T12:51:54.109Z,2.95
2022-08-24T12:54:28.712Z,3.42
2022-08-24T12:57:25.395Z,2.50
2022-08-24T12:59:57.698Z,2.60
2022-08-24T13:02:26.357Z,2.80
2022-08-24T13:04:53.720Z,3.20
2022-08-24T13:07:23.371Z,2.90
2022-08-24T13:10:15.850Z,3.05
2022-08-24T13:12:43.448Z,3.72
2022-08-24T13:15:31.205Z,3.97
2022-08-24T13:18:20.914Z,2.78
2022-08-24T13:20:50.251Z,2.65
2022-08-24T13:23:18.886Z,2.72
2022-08-24T13:25:48.288Z,2.70
2022-08-24T13:28:20.933Z,3.05
2022-08-24T13:30:56.418Z,2.55
2022-08-24T13:33:47.840Z,2.30
2022-08-24T13:36:29.744Z,2.75
2022-08-24T13:39:15.612Z,2.90
2022-08-24T13:41:49.319Z,4.43
2022-08-24T13:44:57.818Z,5.70
2022-08-24T13:47:33.506Z,7.80
2022-08-24T13:50:34.327Z,7.10
2022-08-24T13:53:38.395Z,4.63
2022-08-24T13:56:26.894Z,4.13
2022-08-24T13:59:11.508Z,3.03
2022-08-24T14:02:21.251Z,3.13
2022-08-24T14:05:19.372Z,2.90
2022-08-24T14:07:56.952Z,2.95
2022-08-24T14:10:53.744Z,2.90
2022-08-24T14:13:32.779Z,3.70
2022-08-24T14:16:29.995Z,3.40
2022-08-24T14:19:11.835Z,3.28
2022-08-24T14:21:53.064Z,2.80
2022-08-24T14:24:30.599Z,3.00
2022-08-24T14:27:05.413Z,2.75
2022-08-24T14:29:35.471Z,3.00
2022-08-24T14:32:12.027Z,4.43
2022-08-24T14:34:41.952Z,4.60
2022-08-24T14:37:14.683Z,3.20
2022-08-24T14:40:29.234Z,2.50
2022-08-24T14:43:34.322Z,2.63
2022-08-24T14:46:24.226Z,2.60
2022-08-24T14:49:18.239Z,2.70
2022-08-24T14:52:03.615Z,3.95
2022-08-24T14:54:39.016Z,3.95
2022-08-24T14:57:22.431Z,7.63
2022-08-24T15:00:04.903Z,2.92
2022-08-24T15:02:43.573Z,2.38
2022-08-24T15:05:13.171Z,3.20
2022-08-24T15:07:40.089Z,2.72
2022-08-24T15:10:14.947Z,2.30
2022-08-24T15:12:51.745Z,2.55
2022-08-24T15:15:23.881Z,3.70
2022-08-24T15:18:18.244Z,2.55
2022-08-24T15:21:18.647Z,2.72
2022-08-24T15:24:09.982Z,2.90
2022-08-24T15:26:56.791Z,2.53
2022-08-24T15:29:27.128Z,2.60
2022-08-24T15:31:59.437Z,2.90
2022-08-24T15:34:48.935Z,2.75
2022-08-24T15:37:25.313Z,3.10
2022-08-24T15:39:52.064Z,2.67
2022-08-24T15:42:18.793Z,2.75
2022-08-24T15:44:49.481Z,2.53
2022-08-24T15:47:28.347Z,2.70
2022-08-24T15:50:02.030Z,2.60
2022-08-24T15:52:40.788Z,2.72
2022-08-24T15:55:19.652Z,2.55
2022-08-24T15:57:46.312Z,2.60
2022-08-24T16:00:44.584Z,2.88
2022-08-24T16:03:45.611Z,2.70
2022-08-24T16:06:24.475Z,3.00
2022-08-24T16:09:20.535Z,2.90
2022-08-24T16:12:06.156Z,3.03
2022-08-24T16:14:47.004Z,2.90
2022-08-24T16:17:26.606Z,2.80
2022-08-24T16:20:06.274Z,2.83
2022-08-24T16:22:39.262Z,2.60
2022-08-24T16:25:13.083Z,2.45
2022-08-24T16:28:32.775Z,2.80
2022-08-24T16:31:07.845Z,2.53
2022-08-24T16:33:43.788Z,2.58
2022-08-24T16:36:18.028Z,2.60
2022-08-24T16:38:51.876Z,2.42
2022-08-24T16:41:21.406Z,2.78
2022-08-24T16:43:49.036Z,3.00
2022-08-24T16:46:21.096Z,2.70
2022-08-24T16:48:47.839Z,2.80
2022-08-24T16:51:14.477Z,2.90
2022-08-24T16:53:41.030Z,2.80
2022-08-24T16:56:14.730Z,5.13
2022-08-24T16:58:43.176Z,6.03
2022-08-24T17:01:09.775Z,5.32
2022-08-24T17:03:38.299Z,3.60
2022-08-24T17:06:05.341Z,2.90
2022-08-24T17:08:32.015Z,2.78
2022-08-24T17:10:58.561Z,2.25
2022-08-24T17:13:48.554Z,2.45
2022-08-24T17:16:12.986Z,2.08
2022-08-24T17:18:40.069Z,2.22
2022-08-24T17:21:06.716Z,3.20
2022-08-24T17:23:34.737Z,2.55
2022-08-24T17:26:06.878Z,2.67
2022-08-24T17:28:39.943Z,2.53
2022-08-24T17:31:06.677Z,2.88
2022-08-24T17:33:33.233Z,3.00
2022-08-24T17:36:00.205Z,2.95
2022-08-24T17:38:30.316Z,2.65
2022-08-24T17:40:57.061Z,2.95
2022-08-24T17:46:15.183Z,2.78
2022-08-24T17:48:45.698Z,3.60
2022-08-24T17:51:13.621Z,3.40
2022-08-24T17:53:40.806Z,3.58
2022-08-24T17:56:11.100Z,3.08
2022-08-24T17:58:57.598Z,3.20
2022-08-24T18:01:25.000Z,3.17
2022-08-24T18:03:51.840Z,3.28
2022-08-24T18:06:21.285Z,3.13
2022-08-24T18:08:48.460Z,3.17
2022-08-24T18:11:15.397Z,3.63
2022-08-24T18:13:42.436Z,5.28
2022-08-24T18:16:15.578Z,4.88
2022-08-24T18:18:42.769Z,3.80
2022-08-24T18:21:09.326Z,3.80
2022-08-24T18:23:37.246Z,3.30
2022-08-24T18:26:12.564Z,5.20
2022-08-24T18:28:39.153Z,3.67
2022-08-24T18:31:09.643Z,3.60
2022-08-24T18:33:36.213Z,3.38
2022-08-24T18:36:02.942Z,4.70
2022-08-24T18:38:29.523Z,3.00
2022-08-24T18:40:56.175Z,2.95
2022-08-24T18:43:24.137Z,3.00
2022-08-24T18:45:52.191Z,3.13
2022-08-24T18:48:19.220Z,2.90
2022-08-24T18:50:45.906Z,2.80
2022-08-24T18:53:16.196Z,3.00
2022-08-24T18:55:46.139Z,2.83
2022-08-24T18:58:13.573Z,2.80
2022-08-24T19:00:41.857Z,3.40
2022-08-24T19:03:11.220Z,3.17
2022-08-24T19:05:39.464Z,3.53
2022-08-24T19:08:06.662Z,3.13
2022-08-24T19:10:36.436Z,2.92
2022-08-24T19:13:08.234Z,3.47
2022-08-24T19:15:39.634Z,3.17
2022-08-24T19:18:11.614Z,2.95
2022-08-24T19:20:48.408Z,3.50
2022-08-24T19:23:36.108Z,3.72
2022-08-24T19:26:04.117Z,3.80
2022-08-24T19:28:31.576Z,4.05
2022-08-24T19:31:00.798Z,4.35
2022-08-24T19:33:33.784Z,4.75
2022-08-24T19:36:00.536Z,4.35
2022-08-24T19:38:27.113Z,3.72
2022-08-24T19:40:57.021Z,3.60
2022-08-24T19:43:27.559Z,3.35
2022-08-24T19:46:08.551Z,3.15
2022-08-24T19:48:39.571Z,3.33
2022-08-24T19:51:10.118Z,3.63
2022-08-24T19:53:42.927Z,3.42
2022-08-24T19:56:09.915Z,3.40
2022-08-24T19:58:51.320Z,3.25
2022-08-24T20:01:26.406Z,3.42
2022-08-24T20:03:53.755Z,3.22
2022-08-24T20:06:23.546Z,3.10
2022-08-24T20:08:51.878Z,3.28
2022-08-24T20:11:19.086Z,2.80
2022-08-24T20:13:47.410Z,2.80
2022-08-24T20:16:18.501Z,3.15
2022-08-24T20:18:45.950Z,3.25
2022-08-24T20:21:16.417Z,4.80
2022-08-24T20:23:46.246Z,5.22
2022-08-24T20:26:15.551Z,6.68
2022-08-24T20:28:48.056Z,3.70
2022-08-24T20:31:15.636Z,3.05
2022-08-24T20:33:42.387Z,3.35
2022-08-24T20:36:33.950Z,3.42
2022-08-24T20:39:01.935Z,3.47
2022-08-24T20:41:28.983Z,3.08
2022-08-24T20:43:58.164Z,3.10
2022-08-24T20:46:26.874Z,2.85
2022-08-24T20:48:55.864Z,3.60
2022-08-24T20:51:25.793Z,2.95
2022-08-24T20:53:52.446Z,3.25
2022-08-24T20:56:31.030Z,3.33
2022-08-24T20:58:58.096Z,3.63
2022-08-24T21:01:24.945Z,2.60
2022-08-24T21:03:51.771Z,3.10
2022-08-24T21:06:19.315Z,3.90
2022-08-24T21:08:48.427Z,3.35
2022-08-24T21:11:19.121Z,3.28
2022-08-24T21:13:45.681Z,3.20
2022-08-24T21:16:17.938Z,3.00
2022-08-24T21:18:46.998Z,3.30
2022-08-24T21:21:16.469Z,3.50
2022-08-24T21:23:43.096Z,3.65
2022-08-24T21:26:11.956Z,3.63
2022-08-24T21:28:41.994Z,3.92
2022-08-24T21:31:09.143Z,3.70
2022-08-24T21:33:54.061Z,3.75
2022-08-24T21:36:23.927Z,3.33
2022-08-24T21:38:53.483Z,3.63
2022-08-24T21:41:20.511Z,3.80
2022-08-24T21:43:47.056Z,3.58
2022-08-24T21:46:14.045Z,3.65
2022-08-24T21:48:40.653Z,3.42
2022-08-24T21:51:07.259Z,3.67
2022-08-24T21:53:33.841Z,3.60
2022-08-24T21:56:01.781Z,3.80
2022-08-24T21:58:28.738Z,4.55
2022-08-24T22:00:59.025Z,4.07
2022-08-24T22:03:37.467Z,3.60
2022-08-24T22:06:08.697Z,3.30
2022-08-24T22:08:36.571Z,3.90
2022-08-24T22:11:03.477Z,3.45
2022-08-24T22:13:30.018Z,3.97
2022-08-24T22:15:56.623Z,3.10
2022-08-24T22:18:23.199Z,3.70
2022-08-24T22:20:49.800Z,3.65
2022-08-24T22:23:18.572Z,3.10
2022-08-24T22:25:45.129Z,3.25
2022-08-24T22:28:11.691Z,3.60
2022-08-24T22:30:38.243Z,3.60
2022-08-24T22:33:05.225Z,3.65
2022-08-24T22:35:31.986Z,3.70
2022-08-24T22:38:09.412Z,3.72
2022-08-24T22:40:36.866Z,3.35
2022-08-24T22:43:04.193Z,3.50
2022-08-24T22:45:30.838Z,3.30
2022-08-24T22:47:57.413Z,3.30
2022-08-24T22:50:24.008Z,3.80
2022-08-24T22:52:50.613Z,3.47
2022-08-24T22:55:17.211Z,3.60
2022-08-24T22:57:43.727Z,3.50
2022-08-24T23:00:15.055Z,3.60
2022-08-24T23:02:43.953Z,3.80
2022-08-24T23:05:10.601Z,3.70
2022-08-24T23:07:37.197Z,3.42
2022-08-24T23:10:07.551Z,3.40
2022-08-24T23:12:34.137Z,3.85
2022-08-24T23:15:00.695Z,3.67
2022-08-24T23:17:27.297Z,3.63
2022-08-24T23:20:00.001Z,3.63
2022-08-24T23:22:29.375Z,3.70
2022-08-24T23:24:56.129Z,3.42
2022-08-24T23:27:22.841Z,3.58
2022-08-24T23:29:49.547Z,3.65
2022-08-24T23:32:18.294Z,3.97
2022-08-24T23:34:46.395Z,3.63
2022-08-24T23:37:13.892Z,3.40
2022-08-24T23:39:40.428Z,3.70
2022-08-24T23:42:07.250Z,3.80
2022-08-24T23:44:34.370Z,3.75
2022-08-24T23:47:01.305Z,3.67
2022-08-24T23:49:29.736Z,3.45
2022-08-24T23:51:57.213Z,3.67
2022-08-24T23:54:27.977Z,4.03
2022-08-24T23:56:55.664Z,3.65
2022-08-24T23:59:27.978Z,3.53
